Time;durP1;ratioP1;P1;durP2;ratioP2;P2;SDS_P1;SDS_P2;PMS_P1;PMS_P2;Temp;Humidity;BMP_temperature;BMP_pressure;BME280_temperature;BME280_humidity;BME280_pressure;Samples;Min_cycle;Max_cycle;Signal;HPM_P1;HPM_P2
2023/04/05 00:00:53;;;;;;;;;;;;;;;;;;5064072;28;49667;-78
2023/04/05 00:03:19;;;;;;;;;;;;;;;;;;5063643;28;50179;-78
2023/04/05 00:05:48;;;;;;;;;;;;;;;;;;5062174;28;46277;-77
2023/04/05 00:08:33;;;;;;;;;;;;;;;;;;5061908;28;47557;-78
2023/04/05 00:10:59;;;;;;;;;;;;;;;;;;5063772;28;49419;-77
2023/04/05 00:13:26;;;;;;;;;;;;;;;;;;5065431;28;20336;-78
2023/04/05 00:15:53;;;;;;;;;;;;;;;;;;5063522;28;50342;-78
2023/04/05 00:18:22;;;;;;;;;;;;;;;;;;5063091;28;35617;-78
2023/04/05 00:20:49;;;;;;;;;;;;;;;;;;5062396;28;46483;-77
2023/04/05 00:23:19;;;;;;;;;;;;;;;;;;5063878;28;47914;-78
2023/04/05 00:25:46;;;;;;;;;;;;;;;;;;5063311;28;44042;-78
2023/04/05 00:28:12;;;;;;;;;;;;;;;;;;5062123;28;47230;-78
2023/04/05 00:30:38;;;;;;;;;;;;;;;;;;5059669;28;47020;-77
2023/04/05 00:33:05;;;;;;;;;;;;;;;;;;5063698;28;42311;-77
2023/04/05 00:35:31;;;;;;;;;;;;;;;;;;5060636;28;49969;-78
2023/04/05 00:37:58;;;;;;;;;;;;;;;;;;5061552;28;46888;-77
2023/04/05 00:40:24;;;;;;;;;;;;;;;;;;5063731;28;44812;-78
2023/04/05 00:42:50;;;;;;;;;;;;;;;;;;5062413;28;46855;-78
2023/04/05 00:45:16;;;;;;;;;;;;;;;;;;5063605;28;45007;-78
2023/04/05 00:47:42;;;;;;;;;;;;;;;;;;5063715;28;47249;-78
2023/04/05 00:50:10;;;;;;;;;;;;;;;;;;5054097;28;49215;-78
2023/04/05 00:52:42;;;;;;;;;;;;;;;;;;5062403;28;47627;-78
2023/04/05 00:55:09;;;;;;;;;;;;;;;;;;5060653;28;47841;-78
2023/04/05 00:57:38;;;;;;;;;;;;;;;;;;5045978;28;45199;-78
2023/04/05 01:00:08;;;;;;;;;;;;;;;;;;5061809;28;47322;-77
2023/04/05 01:02:38;;;;;;;;;;;;;;;;;;5061945;28;49779;-77
2023/04/05 01:05:04;;;;;;;;;;;;;;;;;;5062008;28;42285;-77
2023/04/05 01:07:30;;;;;;;;;;;;;;;;;;5062989;28;45424;-77
2023/04/05 01:09:56;;;;;;;;;;;;;;;;;;5060995;28;48318;-78
2023/04/05 01:12:23;;;;;;;;;;;;;;;;;;5061394;28;43820;-78
2023/04/05 01:14:49;;;;;;;;;;;;;;;;;;5060475;28;49200;-77
2023/04/05 01:17:20;;;;;;;;;;;;;;;;;;5061740;28;49548;-78
2023/04/05 01:19:47;;;;;;;;;;;;;;;;;;5060327;28;43947;-78
2023/04/05 01:22:13;;;;;;;;;;;;;;;;;;5061697;28;46189;-78
2023/04/05 01:24:39;;;;;;;;;;;;;;;;;;5061831;28;42782;-78
2023/04/05 01:27:06;;;;;;;;;;;;;;;;;;5062498;28;48667;-77
2023/04/05 01:29:32;;;;;;;;;;;;;;;;;;5060811;28;45728;-77
2023/04/05 01:31:58;;;;;;;;;;;;;;;;;;5062402;28;45037;-78
2023/04/05 01:34:25;;;;;;;;;;;;;;;;;;5062046;28;48402;-77
2023/04/05 01:36:52;;;;;;;;;;;;;;;;;;5059493;28;44721;-77
2023/04/05 01:39:18;;;;;;;;;;;;;;;;;;5060667;28;42907;-77
2023/04/05 01:41:44;;;;;;;;;;;;;;;;;;5061897;28;48453;-78
2023/04/05 01:44:10;;;;;;;;;;;;;;;;;;5061444;28;46923;-78
2023/04/05 01:46:37;;;;;;;;;;;;;;;;;;5062037;28;45065;-78
2023/04/05 01:49:03;;;;;;;;;;;;;;;;;;5042790;28;49116;-77
2023/04/05 01:51:30;;;;;;;;;;;;;;;;;;5042142;28;42088;-78
2023/04/05 01:53:57;;;;;;;;;;;;;;;;;;5042258;28;48961;-77
2023/04/05 01:56:23;;;;;;;;;;;;;;;;;;5068827;28;51026;-78
2023/04/05 01:58:49;;;;;;;;;;;;;;;;;;5060589;28;43833;-78
2023/04/05 02:01:16;;;;;;;;;;;;;;;;;;5060791;28;48229;-78
2023/04/05 02:03:42;;;;;;;;;;;;;;;;;;5062049;28;48565;-78
2023/04/05 02:06:09;;;;;;;;;;;;;;;;;;5062450;28;43085;-77
2023/04/05 02:08:35;;;;;;;;;;;;;;;;;;5061664;28;46498;-78
2023/04/05 02:11:01;;;;;;;;;;;;;;;;;;5057344;28;45065;-77
2023/04/05 02:13:27;;;;;;;;;;;;;;;;;;5057369;28;47889;-77
2023/04/05 02:15:54;;;;;;;;;;;;;;;;;;5060587;28;48362;-77
2023/04/05 02:18:29;;;;;;;;;;;;;;;;;;5060889;28;43625;-78
2023/04/05 02:20:58;;;;;;;;;;;;;;;;;;5060236;28;47553;-78
2023/04/05 02:23:26;;;;;;;;;;;;;;;;;;5055484;28;46828;-77
2023/04/05 02:25:52;;;;;;;;;;;;;;;;;;5058001;28;46316;-77
2023/04/05 02:28:19;;;;;;;;;;;;;;;;;;5060382;28;48314;-78
2023/04/05 02:30:45;;;;;;;;;;;;;;;;;;5064441;28;45653;-78
2023/04/05 02:33:11;;;;;;;;;;;;;;;;;;5065265;28;46960;-77
2023/04/05 02:35:37;;;;;;;;;;;;;;;;;;5063485;28;46905;-78
2023/04/05 02:38:04;;;;;;;;;;;;;;;;;;5064202;28;42267;-77
2023/04/05 02:40:30;;;;;;;;;;;;;;;;;;5064650;28;47481;-78
2023/04/05 02:42:56;;;;;;;;;;;;;;;;;;5063003;28;43331;-77
2023/04/05 02:45:22;;;;;;;;;;;;;;;;;;5064740;28;44678;-78
2023/04/05 02:47:49;;;;;;;;;;;;;;;;;;5063027;28;43902;-77
2023/04/05 02:50:19;;;;;;;;;;;;;;;;;;5062635;28;43734;-78
2023/04/05 02:52:46;;;;;;;;;;;;;;;;;;5063070;28;47161;-78
2023/04/05 02:55:12;;;;;;;;;;;;;;;;;;5064821;28;46552;-77
2023/04/05 02:57:39;;;;;;;;;;;;;;;;;;5064697;28;43620;-78
2023/04/05 03:00:07;;;;;;;;;;;;;;;;;;5063753;28;47685;-77
2023/04/05 03:02:33;;;;;;;;;;;;;;;;;;5065240;28;45078;-78
2023/04/05 03:05:02;;;;;;;;;;;;;;;;;;5048345;28;44905;-77
2023/04/05 03:07:29;;;;;;;;;;;;;;;;;;5044386;28;44074;-77
2023/04/05 03:09:56;;;;;;;;;;;;;;;;;;5076349;28;46585;-78
2023/04/05 03:12:23;;;;;;;;;;;;;;;;;;5062384;28;46555;-77
2023/04/05 03:14:49;;;;;;;;;;;;;;;;;;5063850;28;49250;-77
2023/04/05 03:17:15;;;;;;;;;;;;;;;;;;5061699;28;45469;-77
2023/04/05 03:19:42;;;;;;;;;;;;;;;;;;5060196;28;48205;-78
2023/04/05 03:22:08;;;;;;;;;;;;;;;;;;5063236;28;49846;-77
2023/04/05 03:24:34;;;;;;;;;;;;;;;;;;5063909;28;41537;-77
2023/04/05 03:27:02;;;;;;;;;;;;;;;;;;5059149;28;46099;-78
2023/04/05 03:29:29;;;;;;;;;;;;;;;;;;5062532;28;49543;-78
2023/04/05 03:31:55;;;;;;;;;;;;;;;;;;5063587;28;41767;-77
2023/04/05 03:34:21;;;;;;;;;;;;;;;;;;5061822;28;48050;-77
2023/04/05 03:36:48;;;;;;;;;;;;;;;;;;5062272;28;43946;-77
2023/04/05 03:39:14;;;;;;;;;;;;;;;;;;5061322;28;47396;-77
2023/04/05 03:41:41;;;;;;;;;;;;;;;;;;5063770;28;46944;-77
2023/04/05 03:44:07;;;;;;;;;;;;;;;;;;5061784;28;46017;-77
2023/04/05 03:46:34;;;;;;;;;;;;;;;;;;5064466;28;44881;-77
2023/04/05 03:49:00;;;;;;;;;;;;;;;;;;5063314;28;46258;-77
2023/04/05 03:51:26;;;;;;;;;;;;;;;;;;5064379;28;45527;-77
2023/04/05 03:53:53;;;;;;;;;;;;;;;;;;5063945;28;47075;-77
2023/04/05 03:56:19;;;;;;;;;;;;;;;;;;5058027;28;42529;-77
2023/04/05 03:58:46;;;;;;;;;;;;;;;;;;5063623;28;46527;-77
2023/04/05 04:01:12;;;;;;;;;;;;;;;;;;5066253;28;48312;-77
2023/04/05 04:03:39;;;;;;;;;;;;;;;;;;5063139;28;45575;-77
2023/04/05 04:06:05;;;;;;;;;;;;;;;;;;5063371;28;48075;-77
2023/04/05 04:08:31;;;;;;;;;;;;;;;;;;5061484;28;50240;-77
2023/04/05 04:10:57;;;;;;;;;;;;;;;;;;5048209;28;43981;-77
2023/04/05 04:13:24;;;;;;;;;;;;;;;;;;5058190;28;47803;-77
2023/04/05 04:15:50;;;;;;;;;;;;;;;;;;5057908;28;48196;-77
2023/04/05 04:18:16;;;;;;;;;;;;;;;;;;5048432;28;45127;-77
2023/04/05 04:20:42;;;;;;;;;;;;;;;;;;5062094;28;46859;-77
2023/04/05 04:23:09;;;;;;;;;;;;;;;;;;5060829;28;44101;-76
2023/04/05 04:25:36;;;;;;;;;;;;;;;;;;5062158;28;46285;-77
2023/04/05 04:28:02;;;;;;;;;;;;;;;;;;5060696;28;48800;-77
2023/04/05 04:30:29;;;;;;;;;;;;;;;;;;5062418;28;43515;-78
2023/04/05 04:32:56;;;;;;;;;;;;;;;;;;5062415;28;48098;-77
2023/04/05 04:35:23;;;;;;;;;;;;;;;;;;5061913;28;50789;-77
2023/04/05 04:37:51;;;;;;;;;;;;;;;;;;5059672;28;47504;-77
2023/04/05 04:40:18;;;;;;;;;;;;;;;;;;5061670;28;47326;-77
2023/04/05 04:42:47;;;;;;;;;;;;;;;;;;5062201;28;43111;-77
2023/04/05 04:45:21;;;;;;;;;;;;;;;;;;5062134;28;45677;-77
2023/04/05 04:47:47;;;;;;;;;;;;;;;;;;5062637;28;48643;-77
2023/04/05 04:50:14;;;;;;;;;;;;;;;;;;5061979;28;43294;-77
2023/04/05 04:52:41;;;;;;;;;;;;;;;;;;5058921;28;47433;-77
2023/04/05 04:55:07;;;;;;;;;;;;;;;;;;5059382;28;45207;-77
2023/04/05 04:57:33;;;;;;;;;;;;;;;;;;5062353;28;44638;-77
2023/04/05 04:59:59;;;;;;;;;;;;;;;;;;5062600;28;50432;-77
2023/04/05 05:02:26;;;;;;;;;;;;;;;;;;5062017;28;43391;-77
2023/04/05 05:04:54;;;;;;;;;;;;;;;;;;5042655;28;49547;-77
2023/04/05 05:07:21;;;;;;;;;;;;;;;;;;5059850;28;47199;-77
2023/04/05 05:09:51;;;;;;;;;;;;;;;;;;5046145;28;44949;-77
2023/04/05 05:12:17;;;;;;;;;;;;;;;;;;5062426;28;47039;-77
2023/04/05 05:14:43;;;;;;;;;;;;;;;;;;5060295;28;47631;-77
2023/04/05 05:17:09;;;;;;;;;;;;;;;;;;5061323;28;45174;-77
2023/04/05 05:19:36;;;;;;;;;;;;;;;;;;5062498;28;45657;-77
2023/04/05 05:22:02;;;;;;;;;;;;;;;;;;5062636;28;48209;-77
2023/04/05 05:24:28;;;;;;;;;;;;;;;;;;5061810;28;44549;-77
2023/04/05 05:26:54;;;;;;;;;;;;;;;;;;5056874;28;48009;-77
2023/04/05 05:29:21;;;;;;;;;;;;;;;;;;5059126;28;46119;-77
2023/04/05 05:31:47;;;;;;;;;;;;;;;;;;5057760;28;48277;-77
2023/04/05 05:34:13;;;;;;;;;;;;;;;;;;5059301;28;45616;-77
2023/04/05 05:36:40;;;;;;;;;;;;;;;;;;5055908;28;44949;-77
2023/04/05 05:39:06;;;;;;;;;;;;;;;;;;5058081;28;48849;-77
2023/04/05 05:41:33;;;;;;;;;;;;;;;;;;5062055;28;45876;-77
2023/04/05 05:43:59;;;;;;;;;;;;;;;;;;5054527;28;47312;-77
2023/04/05 05:46:25;;;;;;;;;;;;;;;;;;5055755;28;45767;-77
2023/04/05 05:48:52;;;;;;;;;;;;;;;;;;5056683;28;41961;-77
2023/04/05 05:51:18;;;;;;;;;;;;;;;;;;5060854;28;44544;-77
2023/04/05 05:53:45;;;;;;;;;;;;;;;;;;5060569;28;46566;-77
2023/04/05 05:56:12;;;;;;;;;;;;;;;;;;5059874;28;45745;-76
2023/04/05 05:58:38;;;;;;;;;;;;;;;;;;5061669;28;44741;-77
2023/04/05 06:01:04;;;;;;;;;;;;;;;;;;5060179;28;45233;-77
2023/04/05 06:03:30;;;;;;;;;;;;;;;;;;5062672;28;44267;-78
2023/04/05 06:05:57;;;;;;;;;;;;;;;;;;5064602;28;48297;-77
2023/04/05 06:08:23;;;;;;;;;;;;;;;;;;5061780;28;44241;-77
2023/04/05 06:10:49;;;;;;;;;;;;;;;;;;5064901;28;46279;-77
2023/04/05 06:13:16;;;;;;;;;;;;;;;;;;5061385;28;50517;-77
2023/04/05 06:15:42;;;;;;;;;;;;;;;;;;5064688;28;45170;-77
2023/04/05 06:18:09;;;;;;;;;;;;;;;;;;5063706;28;49578;-77
2023/04/05 06:20:39;;;;;;;;;;;;;;;;;;5066182;28;46276;-78
2023/04/05 06:23:06;;;;;;;;;;;;;;;;;;5066505;28;43568;-78
2023/04/05 06:25:33;;;;;;;;;;;;;;;;;;5065821;28;44905;-77
2023/04/05 06:27:59;;;;;;;;;;;;;;;;;;5066843;28;42393;-77
2023/04/05 06:30:25;;;;;;;;;;;;;;;;;;5070958;28;47554;-77
2023/04/05 06:32:53;;;;;;;;;;;;;;;;;;5067430;28;47090;-78
2023/04/05 06:35:20;;;;;;;;;;;;;;;;;;5067598;28;44742;-77
2023/04/05 06:37:46;;;;;;;;;;;;;;;;;;5065652;28;49236;-77
2023/04/05 06:40:13;;;;;;;;;;;;;;;;;;5067848;28;48830;-77
2023/04/05 06:42:39;;;;;;;;;;;;;;;;;;5065931;28;44975;-77
2023/04/05 06:45:06;;;;;;;;;;;;;;;;;;5058734;28;43745;-77
2023/04/05 06:47:32;;;;;;;;;;;;;;;;;;5061903;28;44772;-77
2023/04/05 06:49:58;;;;;;;;;;;;;;;;;;5065083;28;46186;-78
2023/04/05 06:52:25;;;;;;;;;;;;;;;;;;5064808;28;48210;-78
2023/04/05 06:54:51;;;;;;;;;;;;;;;;;;5064751;28;43847;-77
2023/04/05 06:57:17;;;;;;;;;;;;;;;;;;5064459;28;47613;-77
2023/04/05 06:59:44;;;;;;;;;;;;;;;;;;5064463;28;51020;-78
2023/04/05 07:02:11;;;;;;;;;;;;;;;;;;5053737;28;46010;-78
2023/04/05 07:04:37;;;;;;;;;;;;;;;;;;5063531;28;46947;-77
2023/04/05 07:07:04;;;;;;;;;;;;;;;;;;5050141;28;49940;-78
2023/04/05 07:09:31;;;;;;;;;;;;;;;;;;5061535;28;48564;-78
2023/04/05 07:11:57;;;;;;;;;;;;;;;;;;5060466;28;47545;-78
2023/04/05 07:14:23;;;;;;;;;;;;;;;;;;5061402;28;42153;-78
2023/04/05 07:16:51;;;;;;;;;;;;;;;;;;5064026;28;48507;-78
2023/04/05 07:19:17;;;;;;;;;;;;;;;;;;5061651;28;46495;-77
2023/04/05 07:21:44;;;;;;;;;;;;;;;;;;5056103;28;45848;-78
2023/04/05 07:24:10;;;;;;;;;;;;;;;;;;5063471;28;45878;-78
2023/04/05 07:26:36;;;;;;;;;;;;;;;;;;5063393;28;46371;-78
2023/04/05 07:29:03;;;;;;;;;;;;;;;;;;5063762;28;41978;-78
2023/04/05 07:31:30;;;;;;;;;;;;;;;;;;5062459;28;47445;-78
2023/04/05 07:33:57;;;;;;;;;;;;;;;;;;5065291;28;41859;-78
2023/04/05 07:36:23;;;;;;;;;;;;;;;;;;5065408;28;46381;-78
2023/04/05 07:38:50;;;;;;;;;;;;;;;;;;5070861;28;47250;-78
2023/04/05 07:41:18;;;;;;;;;;;;;;;;;;5074079;28;44335;-79
2023/04/05 07:43:45;;;;;;;;;;;;;;;;;;5065360;28;47719;-78
2023/04/05 07:46:11;;;;;;;;;;;;;;;;;;5066158;28;47041;-79
2023/04/05 07:48:37;;;;;;;;;;;;;;;;;;5068136;28;43617;-79
2023/04/05 07:51:04;;;;;;;;;;;;;;;;;;5070600;28;46290;-79
2023/04/05 07:53:30;;;;;;;;;;;;;;;;;;5066931;28;43857;-79
2023/04/05 07:55:57;;;;;;;;;;;;;;;;;;5067652;28;47330;-79
2023/04/05 07:58:24;;;;;;;;;;;;;;;;;;5066598;28;49162;-79
2023/04/05 08:00:52;;;;;;;;;;;;;;;;;;5066967;28;42072;-79
2023/04/05 08:03:18;;;;;;;;;;;;;;;;;;5068519;28;48545;-79
2023/04/05 08:05:44;;;;;;;;;;;;;;;;;;5068500;28;48139;-79
2023/04/05 08:08:11;;;;;;;;;;;;;;;;;;5068570;28;44747;-79
2023/04/05 08:10:37;;;;;;;;;;;;;;;;;;5068311;28;46499;-79
2023/04/05 08:13:05;;;;;;;;;;;;;;;;;;5068526;28;46970;-78
2023/04/05 08:15:31;;;;;;;;;;;;;;;;;;5068341;28;45391;-79
2023/04/05 08:17:58;;;;;;;;;;;;;;;;;;5067836;28;46850;-79
2023/04/05 08:20:24;;;;;;;;;;;;;;;;;;5068656;28;45850;-79
2023/04/05 08:22:50;;;;;;;;;;;;;;;;;;5067191;28;45302;-77
2023/04/05 08:25:17;;;;;;;;;;;;;;;;;;5066825;28;48020;-78
2023/04/05 08:27:43;;;;;;;;;;;;;;;;;;5067186;28;45413;-79
2023/04/05 08:30:09;;;;;;;;;;;;;;;;;;5064468;28;46211;-78
2023/04/05 08:32:36;;;;;;;;;;;;;;;;;;5060275;28;50489;-78
2023/04/05 08:35:02;;;;;;;;;;;;;;;;;;5064373;28;42277;-78
2023/04/05 08:37:28;;;;;;;;;;;;;;;;;;5067739;28;45970;-78
2023/04/05 08:39:54;;;;;;;;;;;;;;;;;;5065105;28;43076;-79
2023/04/05 08:42:21;;;;;;;;;;;;;;;;;;5066490;28;48741;-79
2023/04/05 08:44:47;;;;;;;;;;;;;;;;;;5067892;28;47274;-79
2023/04/05 08:47:17;;;;;;;;;;;;;;;;;;5063698;28;45439;-79
2023/04/05 08:49:43;;;;;;;;;;;;;;;;;;5067777;28;46820;-79
2023/04/05 08:52:10;;;;;;;;;;;;;;;;;;5068664;28;46598;-79
2023/04/05 08:54:36;;;;;;;;;;;;;;;;;;5067448;28;47110;-79
2023/04/05 08:57:04;;;;;;;;;;;;;;;;;;5066018;28;47006;-80
2023/04/05 08:59:33;;;;;;;;;;;;;;;;;;5068341;28;42378;-79
2023/04/05 09:02:00;;;;;;;;;;;;;;;;;;5065399;28;47217;-77
2023/04/05 09:04:27;;;;;;;;;;;;;;;;;;5055237;28;47013;-79
2023/04/05 09:06:54;;;;;;;;;;;;;;;;;;5067942;28;44335;-78
2023/04/05 09:09:20;;;;;;;;;;;;;;;;;;5062731;28;46410;-80
2023/04/05 09:11:46;;;;;;;;;;;;;;;;;;5062054;28;48694;-79
2023/04/05 09:14:13;;;;;;;;;;;;;;;;;;5066954;28;44530;-79
2023/04/05 09:16:39;;;;;;;;;;;;;;;;;;5066297;28;47502;-78
2023/04/05 09:19:06;;;;;;;;;;;;;;;;;;5066478;28;45266;-80
2023/04/05 09:21:32;;;;;;;;;;;;;;;;;;5054727;28;43931;-81
2023/04/05 09:23:59;;;;;;;;;;;;;;;;;;5066786;28;47315;-78
2023/04/05 09:26:26;;;;;;;;;;;;;;;;;;5064899;28;42639;-79
2023/04/05 09:28:52;;;;;;;;;;;;;;;;;;5065775;28;49244;-79
2023/04/05 09:31:18;;;;;;;;;;;;;;;;;;5064041;28;47860;-80
2023/04/05 09:33:45;;;;;;;;;;;;;;;;;;5066964;28;44019;-79
2023/04/05 09:36:11;;;;;;;;;;;;;;;;;;5062529;28;46407;-78
2023/04/05 09:38:37;;;;;;;;;;;;;;;;;;5068077;28;50576;-77
2023/04/05 09:41:04;;;;;;;;;;;;;;;;;;5070377;28;49361;-79
2023/04/05 09:43:30;;;;;;;;;;;;;;;;;;5072089;28;45229;-79
2023/04/05 09:45:56;;;;;;;;;;;;;;;;;;5072035;28;43637;-79
2023/04/05 09:48:23;;;;;;;;;;;;;;;;;;5069856;28;43910;-78
2023/04/05 09:50:49;;;;;;;;;;;;;;;;;;5065777;28;46926;-79
2023/04/05 09:53:17;;;;;;;;;;;;;;;;;;5070579;28;42310;-80
2023/04/05 09:55:43;;;;;;;;;;;;;;;;;;5068007;28;46521;-78
2023/04/05 09:58:10;;;;;;;;;;;;;;;;;;5068423;28;44440;-80
2023/04/05 10:00:36;;;;;;;;;;;;;;;;;;5068671;28;43930;-79
2023/04/05 10:03:06;;;;;;;;;;;;;;;;;;5065488;28;46010;-79
2023/04/05 10:05:32;;;;;;;;;;;;;;;;;;5053868;28;43764;-80
2023/04/05 10:07:59;;;;;;;;;;;;;;;;;;5057677;28;44851;-79
2023/04/05 10:10:25;;;;;;;;;;;;;;;;;;5067864;28;47584;-80
2023/04/05 10:12:51;;;;;;;;;;;;;;;;;;5070470;28;43606;-78
2023/04/05 10:15:18;;;;;;;;;;;;;;;;;;5067566;28;46642;-80
2023/04/05 10:17:47;;;;;;;;;;;;;;;;;;5069705;28;47192;-80
2023/04/05 10:20:14;;;;;;;;;;;;;;;;;;5068594;28;43835;-80
2023/04/05 10:22:40;;;;;;;;;;;;;;;;;;5067717;28;44682;-79
2023/04/05 10:25:06;;;;;;;;;;;;;;;;;;5069218;28;42831;-80
2023/04/05 10:27:33;;;;;;;;;;;;;;;;;;5069426;28;48022;-80
2023/04/05 10:29:59;;;;;;;;;;;;;;;;;;5069302;28;48702;-79
2023/04/05 10:32:25;;;;;;;;;;;;;;;;;;5066319;28;42753;-79
2023/04/05 10:34:52;;;;;;;;;;;;;;;;;;5064961;28;44294;-79
2023/04/05 10:37:18;;;;;;;;;;;;;;;;;;5059291;28;47358;-79
2023/04/05 10:39:44;;;;;;;;;;;;;;;;;;5059470;28;42034;-80
2023/04/05 10:42:11;;;;;;;;;;;;;;;;;;5065329;28;49099;-79
2023/04/05 10:44:37;;;;;;;;;;;;;;;;;;5065085;28;33495;-79
2023/04/05 10:47:03;;;;;;;;;;;;;;;;;;5068146;28;48901;-81
2023/04/05 10:49:30;;;;;;;;;;;;;;;;;;5066694;28;46104;-81
2023/04/05 10:51:56;;;;;;;;;;;;;;;;;;5057269;28;43216;-81
2023/04/05 10:54:22;;;;;;;;;;;;;;;;;;5070197;28;46433;-82
2023/04/05 10:56:49;;;;;;;;;;;;;;;;;;5069291;28;46864;-82
2023/04/05 10:59:15;;;;;;;;;;;;;;;;;;5066798;28;45425;-81
2023/04/05 11:01:41;;;;;;;;;;;;;;;;;;5066491;28;46954;-80
2023/04/05 11:04:08;;;;;;;;;;;;;;;;;;5067504;28;47163;-79
2023/04/05 11:06:34;;;;;;;;;;;;;;;;;;5065666;28;47904;-80
2023/04/05 11:09:00;;;;;;;;;;;;;;;;;;5067605;28;47348;-80
2023/04/05 11:11:26;;;;;;;;;;;;;;;;;;5063767;28;44943;-80
2023/04/05 11:13:53;;;;;;;;;;;;;;;;;;5066636;28;47387;-79
2023/04/05 11:16:19;;;;;;;;;;;;;;;;;;5062743;28;46776;-80
2023/04/05 11:18:46;;;;;;;;;;;;;;;;;;5064434;28;43547;-80
2023/04/05 11:21:12;;;;;;;;;;;;;;;;;;5065838;28;46505;-81
2023/04/05 11:23:38;;;;;;;;;;;;;;;;;;5067873;28;45860;-82
2023/04/05 11:26:04;;;;;;;;;;;;;;;;;;5065623;28;45147;-81
2023/04/05 11:28:31;;;;;;;;;;;;;;;;;;5064197;28;45531;-81
2023/04/05 11:30:57;;;;;;;;;;;;;;;;;;5065592;28;43710;-81
2023/04/05 11:33:24;;;;;;;;;;;;;;;;;;5067706;28;44963;-80
2023/04/05 11:35:50;;;;;;;;;;;;;;;;;;5068623;28;47146;-79
2023/04/05 11:38:16;;;;;;;;;;;;;;;;;;5068828;28;43079;-79
2023/04/05 11:40:43;;;;;;;;;;;;;;;;;;5068302;28;47496;-79
2023/04/05 11:43:10;;;;;;;;;;;;;;;;;;5069293;28;45733;-83
2023/04/05 11:45:36;;;;;;;;;;;;;;;;;;5065716;28;44491;-82
2023/04/05 11:48:02;;;;;;;;;;;;;;;;;;5067053;28;46450;-81
2023/04/05 11:50:31;;;;;;;;;;;;;;;;;;5067910;28;42431;-80
2023/04/05 11:52:58;;;;;;;;;;;;;;;;;;5063210;28;46397;-83
2023/04/05 11:55:24;;;;;;;;;;;;;;;;;;5068849;28;47251;-81
2023/04/05 11:57:51;;;;;;;;;;;;;;;;;;5068287;28;43739;-81
2023/04/05 12:00:17;;;;;;;;;;;;;;;;;;5067988;28;46450;-81
2023/04/05 12:02:43;;;;;;;;;;;;;;;;;;5067753;28;47982;-82
2023/04/05 12:05:10;;;;;;;;;;;;;;;;;;5065486;28;43546;-79
2023/04/05 12:07:36;;;;;;;;;;;;;;;;;;5066987;28;46365;-80
2023/04/05 12:10:03;;;;;;;;;;;;;;;;;;5068262;28;47990;-83
2023/04/05 12:12:29;;;;;;;;;;;;;;;;;;5064272;28;46514;-82
2023/04/05 12:14:55;;;;;;;;;;;;;;;;;;5063581;28;48287;-81
2023/04/05 12:17:22;;;;;;;;;;;;;;;;;;5065905;28;44397;-81
2023/04/05 12:19:48;;;;;;;;;;;;;;;;;;5065530;28;47661;-80
2023/04/05 12:22:14;;;;;;;;;;;;;;;;;;5067616;28;48208;-81
2023/04/05 12:24:40;;;;;;;;;;;;;;;;;;5066465;28;43517;-80
2023/04/05 12:27:07;;;;;;;;;;;;;;;;;;5065054;28;46519;-80
2023/04/05 12:29:33;;;;;;;;;;;;;;;;;;5065969;28;48254;-78
2023/04/05 12:31:59;;;;;;;;;;;;;;;;;;5067827;28;43684;-80
2023/04/05 12:34:25;;;;;;;;;;;;;;;;;;5065731;28;47596;-80
2023/04/05 12:36:52;;;;;;;;;;;;;;;;;;5064830;28;44666;-78
2023/04/05 12:39:18;;;;;;;;;;;;;;;;;;5062036;28;46920;-80
2023/04/05 12:41:45;;;;;;;;;;;;;;;;;;5062386;28;48390;-83
2023/04/05 12:44:11;;;;;;;;;;;;;;;;;;5061983;28;45660;-81
2023/04/05 12:46:38;;;;;;;;;;;;;;;;;;5065276;28;43560;-79
2023/04/05 12:49:04;;;;;;;;;;;;;;;;;;5067609;28;48605;-78
2023/04/05 12:51:31;;;;;;;;;;;;;;;;;;5064841;28;44861;-79
2023/04/05 12:53:57;;;;;;;;;;;;;;;;;;5063051;28;47149;-78
2023/04/05 12:56:23;;;;;;;;;;;;;;;;;;5062620;28;43563;-77
2023/04/05 12:58:50;;;;;;;;;;;;;;;;;;5057873;28;44920;-77
2023/04/05 13:01:16;;;;;;;;;;;;;;;;;;5062701;28;48328;-77
2023/04/05 13:03:42;;;;;;;;;;;;;;;;;;5060013;28;45287;-77
2023/04/05 13:06:08;;;;;;;;;;;;;;;;;;5062397;28;45537;-77
2023/04/05 13:08:35;;;;;;;;;;;;;;;;;;5060673;28;50822;-78
2023/04/05 13:11:01;;;;;;;;;;;;;;;;;;5065298;28;43841;-78
2023/04/05 13:13:27;;;;;;;;;;;;;;;;;;5065946;28;46377;-79
2023/04/05 13:15:53;;;;;;;;;;;;;;;;;;5065431;28;44046;-80
2023/04/05 13:18:20;;;;;;;;;;;;;;;;;;5066024;28;46282;-79
2023/04/05 13:20:46;;;;;;;;;;;;;;;;;;5064507;28;48484;-79
2023/04/05 13:23:12;;;;;;;;;;;;;;;;;;5067606;28;43693;-78
2023/04/05 13:25:39;;;;;;;;;;;;;;;;;;5070788;28;46258;-79
2023/04/05 13:28:05;;;;;;;;;;;;;;;;;;5069768;28;48545;-79
2023/04/05 13:30:32;;;;;;;;;;;;;;;;;;5057397;28;45658;-79
2023/04/05 13:32:58;;;;;;;;;;;;;;;;;;5065491;28;46334;-78
2023/04/05 13:35:24;;;;;;;;;;;;;;;;;;5064600;28;47312;-78
2023/04/05 13:37:51;;;;;;;;;;;;;;;;;;5062635;28;44805;-77
2023/04/05 13:40:17;;;;;;;;;;;;;;;;;;5060396;28;47281;-78
2023/04/05 13:42:43;;;;;;;;;;;;;;;;;;5063479;28;44103;-78
2023/04/05 13:45:09;;;;;;;;;;;;;;;;;;5063233;28;45010;-78
2023/04/05 13:47:36;;;;;;;;;;;;;;;;;;5059962;28;48066;-78
2023/04/05 13:50:02;;;;;;;;;;;;;;;;;;5059048;28;41533;-79
2023/04/05 13:52:31;;;;;;;;;;;;;;;;;;5054923;28;47572;-80
2023/04/05 13:54:57;;;;;;;;;;;;;;;;;;5061923;28;49867;-78
2023/04/05 13:57:27;;;;;;;;;;;;;;;;;;5061333;28;41385;-78
2023/04/05 13:59:53;;;;;;;;;;;;;;;;;;5060055;28;45698;-78
2023/04/05 14:02:24;;;;;;;;;;;;;;;;;;5044060;28;43388;-78
2023/04/05 14:04:50;;;;;;;;;;;;;;;;;;5057312;28;46456;-80
2023/04/05 14:07:17;;;;;;;;;;;;;;;;;;5060204;28;48430;-78
2023/04/05 14:09:43;;;;;;;;;;;;;;;;;;5062854;28;43472;-80
2023/04/05 14:12:09;;;;;;;;;;;;;;;;;;5066356;28;47853;-79
2023/04/05 14:14:36;;;;;;;;;;;;;;;;;;5058482;28;46942;-80
2023/04/05 14:17:02;;;;;;;;;;;;;;;;;;5065184;28;44955;-78
2023/04/05 14:19:28;;;;;;;;;;;;;;;;;;5065487;28;43959;-78
2023/04/05 14:21:54;;;;;;;;;;;;;;;;;;5062286;28;43354;-79
2023/04/05 14:24:21;;;;;;;;;;;;;;;;;;5057661;28;46817;-78
2023/04/05 14:26:48;;;;;;;;;;;;;;;;;;5060415;28;46959;-78
2023/04/05 14:29:15;;;;;;;;;;;;;;;;;;5061638;28;45496;-78
2023/04/05 14:31:41;;;;;;;;;;;;;;;;;;5060690;28;47310;-79
2023/04/05 14:34:08;;;;;;;;;;;;;;;;;;5058409;28;48052;-79
2023/04/05 14:36:34;;;;;;;;;;;;;;;;;;5066563;28;44971;-78
2023/04/05 14:39:00;;;;;;;;;;;;;;;;;;5063418;28;46763;-78
2023/04/05 14:41:26;;;;;;;;;;;;;;;;;;5061924;28;46982;-80
2023/04/05 14:43:53;;;;;;;;;;;;;;;;;;5066495;28;47807;-79
2023/04/05 14:46:19;;;;;;;;;;;;;;;;;;5067594;28;47306;-79
2023/04/05 14:48:45;;;;;;;;;;;;;;;;;;5062571;28;43206;-79
2023/04/05 14:51:12;;;;;;;;;;;;;;;;;;5061015;28;47288;-80
2023/04/05 14:53:38;;;;;;;;;;;;;;;;;;5064346;28;47702;-79
2023/04/05 14:56:04;;;;;;;;;;;;;;;;;;5061858;28;44829;-79
2023/04/05 14:58:32;;;;;;;;;;;;;;;;;;5062570;28;45029;-77
2023/04/05 15:01:01;;;;;;;;;;;;;;;;;;5058371;28;45797;-79
2023/04/05 15:03:29;;;;;;;;;;;;;;;;;;5060452;28;44664;-79
2023/04/05 15:05:56;;;;;;;;;;;;;;;;;;5062161;28;48488;-78
2023/04/05 15:08:24;;;;;;;;;;;;;;;;;;5065082;28;44083;-77
2023/04/05 15:10:51;;;;;;;;;;;;;;;;;;5063379;28;47520;-78
2023/04/05 15:13:19;;;;;;;;;;;;;;;;;;5066228;28;48208;-79
2023/04/05 15:15:45;;;;;;;;;;;;;;;;;;5065311;28;43814;-79
2023/04/05 15:18:12;;;;;;;;;;;;;;;;;;5063876;28;45760;-79
2023/04/05 15:20:38;;;;;;;;;;;;;;;;;;5065321;28;46481;-79
2023/04/05 15:23:05;;;;;;;;;;;;;;;;;;5064757;28;44636;-79
2023/04/05 15:25:31;;;;;;;;;;;;;;;;;;5063725;28;46952;-82
2023/04/05 15:27:58;;;;;;;;;;;;;;;;;;5065375;28;43751;-83
2023/04/05 15:30:27;;;;;;;;;;;;;;;;;;5060661;28;47737;-79
2023/04/05 15:32:54;;;;;;;;;;;;;;;;;;5058617;28;46859;-78
2023/04/05 15:35:20;;;;;;;;;;;;;;;;;;5078353;28;42490;-79
2023/04/05 15:37:46;;;;;;;;;;;;;;;;;;5064921;28;46311;-81
2023/04/05 15:40:13;;;;;;;;;;;;;;;;;;5068512;28;47926;-81
2023/04/05 15:42:39;;;;;;;;;;;;;;;;;;5068090;28;43865;-84
2023/04/05 15:45:05;;;;;;;;;;;;;;;;;;5066639;28;47476;-81
2023/04/05 15:47:32;;;;;;;;;;;;;;;;;;5066115;28;44071;-83
2023/04/05 15:49:58;;;;;;;;;;;;;;;;;;5065880;28;43971;-81
2023/04/05 15:52:24;;;;;;;;;;;;;;;;;;5069525;28;44669;-82
2023/04/05 15:54:50;;;;;;;;;;;;;;;;;;5060763;28;43360;-83
2023/04/05 15:57:18;;;;;;;;;;;;;;;;;;5061308;28;46471;-84
2023/04/05 15:59:44;;;;;;;;;;;;;;;;;;5066888;28;48070;-79
2023/04/05 16:02:11;;;;;;;;;;;;;;;;;;5066849;28;43500;-80
2023/04/05 16:04:38;;;;;;;;;;;;;;;;;;5068153;28;47944;-80
2023/04/05 16:07:06;;;;;;;;;;;;;;;;;;5063653;28;48211;-81
2023/04/05 16:09:32;;;;;;;;;;;;;;;;;;5064533;28;46291;-80
2023/04/05 16:11:59;;;;;;;;;;;;;;;;;;5060991;28;47385;-80
2023/04/05 16:14:25;;;;;;;;;;;;;;;;;;5064731;28;43961;-80
2023/04/05 16:16:51;;;;;;;;;;;;;;;;;;5062872;28;47755;-82
2023/04/05 16:19:19;;;;;;;;;;;;;;;;;;5065744;28;47147;-79
2023/04/05 16:21:46;;;;;;;;;;;;;;;;;;5061038;28;44767;-82
2023/04/05 16:24:12;;;;;;;;;;;;;;;;;;5055641;28;44681;-80
2023/04/05 16:26:40;;;;;;;;;;;;;;;;;;5058883;28;49600;-80
2023/04/05 16:29:06;;;;;;;;;;;;;;;;;;5065089;28;44761;-79
2023/04/05 16:31:34;;;;;;;;;;;;;;;;;;5067768;28;46784;-80
2023/04/05 16:34:00;;;;;;;;;;;;;;;;;;5066854;28;44668;-80
2023/04/05 16:36:27;;;;;;;;;;;;;;;;;;5067956;28;44391;-80
2023/04/05 16:38:59;;;;;;;;;;;;;;;;;;5065109;28;47794;-80
2023/04/05 16:41:26;;;;;;;;;;;;;;;;;;5067774;28;46881;-81